sensor_id;sensor_type;location;lat;lon;timestamp;P1;durP1;ratioP1;P2;durP2;ratioP2
18503;SDS011;9381;54.244;10.074;2022-12-28T00:04:29;34.10;;;21.40;;
18503;SDS011;9381;54.244;10.074;2022-12-28T00:09:29;27.52;;;19.95;;
18503;SDS011;9381;54.244;10.074;2022-12-28T00:14:29;31.77;;;19.05;;
18503;SDS011;9381;54.244;10.074;2022-12-28T00:19:29;28.23;;;19.38;;
18503;SDS011;9381;54.244;10.074;2022-12-28T00:24:30;28.53;;;19.20;;
18503;SDS011;9381;54.244;10.074;2022-12-28T00:29:30;33.67;;;19.42;;
18503;SDS011;9381;54.244;10.074;2022-12-28T00:34:30;31.98;;;18.48;;
18503;SDS011;9381;54.244;10.074;2022-12-28T00:39:31;30.33;;;18.33;;
18503;SDS011;9381;54.244;10.074;2022-12-28T00:44:31;31.15;;;18.77;;
18503;SDS011;9381;54.244;10.074;2022-12-28T00:49:31;31.23;;;18.13;;
18503;SDS011;9381;54.244;10.074;2022-12-28T00:54:32;27.98;;;16.92;;
18503;SDS011;9381;54.244;10.074;2022-12-28T00:59:32;29.07;;;16.83;;
18503;SDS011;9381;54.244;10.074;2022-12-28T01:04:32;24.90;;;15.27;;
18503;SDS011;9381;54.244;10.074;2022-12-28T01:09:33;27.67;;;15.55;;
18503;SDS011;9381;54.244;10.074;2022-12-28T01:14:33;21.87;;;13.30;;
18503;SDS011;9381;54.244;10.074;2022-12-28T01:19:33;21.47;;;12.30;;
18503;SDS011;9381;54.244;10.074;2022-12-28T01:24:33;22.65;;;11.55;;
18503;SDS011;9381;54.244;10.074;2022-12-28T01:29:34;16.90;;;9.77;;
18503;SDS011;9381;54.244;10.074;2022-12-28T01:34:34;17.17;;;9.82;;
18503;SDS011;9381;54.244;10.074;2022-12-28T01:39:34;15.32;;;8.68;;
18503;SDS011;9381;54.244;10.074;2022-12-28T01:44:42;17.83;;;8.82;;
18503;SDS011;9381;54.244;10.074;2022-12-28T01:49:46;16.00;;;8.60;;
18503;SDS011;9381;54.244;10.074;2022-12-28T01:54:56;13.73;;;7.40;;
18503;SDS011;9381;54.244;10.074;2022-12-28T02:00:08;13.57;;;6.73;;
18503;SDS011;9381;54.244;10.074;2022-12-28T02:05:11;12.87;;;7.47;;
18503;SDS011;9381;54.244;10.074;2022-12-28T02:10:13;12.80;;;6.43;;
18503;SDS011;9381;54.244;10.074;2022-12-28T02:15:15;11.87;;;6.13;;
18503;SDS011;9381;54.244;10.074;2022-12-28T02:20:16;11.10;;;5.90;;
18503;SDS011;9381;54.244;10.074;2022-12-28T02:25:28;12.90;;;6.23;;
18503;SDS011;9381;54.244;10.074;2022-12-28T02:30:42;11.80;;;5.60;;
18503;SDS011;9381;54.244;10.074;2022-12-28T02:36:04;8.67;;;5.57;;
18503;SDS011;9381;54.244;10.074;2022-12-28T02:41:13;11.80;;;5.70;;
18503;SDS011;9381;54.244;10.074;2022-12-28T02:46:18;9.77;;;5.43;;
18503;SDS011;9381;54.244;10.074;2022-12-28T02:51:48;11.90;;;5.57;;
18503;SDS011;9381;54.244;10.074;2022-12-28T02:57:01;9.27;;;4.80;;
18503;SDS011;9381;54.244;10.074;2022-12-28T03:07:34;10.90;;;6.47;;
18503;SDS011;9381;54.244;10.074;2022-12-28T03:13:04;12.57;;;5.50;;
18503;SDS011;9381;54.244;10.074;2022-12-28T03:18:29;10.60;;;6.27;;
18503;SDS011;9381;54.244;10.074;2022-12-28T03:23:51;12.43;;;6.33;;
18503;SDS011;9381;54.244;10.074;2022-12-28T03:29:10;11.17;;;6.53;;
18503;SDS011;9381;54.244;10.074;2022-12-28T03:34:34;11.57;;;6.50;;
18503;SDS011;9381;54.244;10.074;2022-12-28T03:39:40;14.73;;;6.70;;
18503;SDS011;9381;54.244;10.074;2022-12-28T03:44:46;16.83;;;7.60;;
18503;SDS011;9381;54.244;10.074;2022-12-28T03:49:53;14.47;;;6.97;;
18503;SDS011;9381;54.244;10.074;2022-12-28T03:54:53;13.40;;;7.17;;
18503;SDS011;9381;54.244;10.074;2022-12-28T03:59:54;13.33;;;7.87;;
18503;SDS011;9381;54.244;10.074;2022-12-28T04:04:54;15.93;;;7.63;;
18503;SDS011;9381;54.244;10.074;2022-12-28T04:09:55;13.38;;;7.32;;
18503;SDS011;9381;54.244;10.074;2022-12-28T04:14:55;13.80;;;7.20;;
18503;SDS011;9381;54.244;10.074;2022-12-28T04:19:55;13.25;;;7.80;;
18503;SDS011;9381;54.244;10.074;2022-12-28T04:24:56;12.43;;;6.57;;
18503;SDS011;9381;54.244;10.074;2022-12-28T04:29:56;13.45;;;6.88;;
18503;SDS011;9381;54.244;10.074;2022-12-28T04:34:56;13.55;;;7.57;;
18503;SDS011;9381;54.244;10.074;2022-12-28T04:39:56;11.15;;;6.88;;
18503;SDS011;9381;54.244;10.074;2022-12-28T04:44:57;15.40;;;7.07;;
18503;SDS011;9381;54.244;10.074;2022-12-28T04:49:57;14.20;;;7.82;;
18503;SDS011;9381;54.244;10.074;2022-12-28T04:54:57;15.13;;;7.10;;
18503;SDS011;9381;54.244;10.074;2022-12-28T04:59:58;9.23;;;6.32;;
18503;SDS011;9381;54.244;10.074;2022-12-28T05:04:58;7.77;;;5.97;;
18503;SDS011;9381;54.244;10.074;2022-12-28T05:09:58;10.23;;;5.93;;
18503;SDS011;9381;54.244;10.074;2022-12-28T05:14:59;10.43;;;6.25;;
18503;SDS011;9381;54.244;10.074;2022-12-28T05:19:59;9.48;;;6.07;;
18503;SDS011;9381;54.244;10.074;2022-12-28T05:24:59;9.73;;;5.97;;
18503;SDS011;9381;54.244;10.074;2022-12-28T05:30:00;10.05;;;5.95;;
18503;SDS011;9381;54.244;10.074;2022-12-28T05:35:00;11.83;;;6.23;;
18503;SDS011;9381;54.244;10.074;2022-12-28T05:40:00;13.03;;;6.27;;
18503;SDS011;9381;54.244;10.074;2022-12-28T05:45:01;11.10;;;6.47;;
18503;SDS011;9381;54.244;10.074;2022-12-28T05:50:01;6.93;;;5.17;;
18503;SDS011;9381;54.244;10.074;2022-12-28T05:55:01;8.45;;;5.82;;
18503;SDS011;9381;54.244;10.074;2022-12-28T06:00:02;7.97;;;5.80;;
18503;SDS011;9381;54.244;10.074;2022-12-28T06:05:04;7.20;;;6.27;;
18503;SDS011;9381;54.244;10.074;2022-12-28T06:10:04;7.33;;;5.97;;
18503;SDS011;9381;54.244;10.074;2022-12-28T06:15:05;6.50;;;5.60;;
18503;SDS011;9381;54.244;10.074;2022-12-28T06:20:06;6.77;;;5.10;;
18503;SDS011;9381;54.244;10.074;2022-12-28T06:25:07;6.83;;;5.60;;
18503;SDS011;9381;54.244;10.074;2022-12-28T06:30:08;8.80;;;5.90;;
18503;SDS011;9381;54.244;10.074;2022-12-28T06:35:09;6.53;;;5.40;;
18503;SDS011;9381;54.244;10.074;2022-12-28T06:40:09;5.90;;;5.30;;
18503;SDS011;9381;54.244;10.074;2022-12-28T06:45:10;8.43;;;5.33;;
18503;SDS011;9381;54.244;10.074;2022-12-28T06:50:10;7.75;;;5.60;;
18503;SDS011;9381;54.244;10.074;2022-12-28T06:55:10;5.90;;;5.22;;
18503;SDS011;9381;54.244;10.074;2022-12-28T07:00:11;6.35;;;5.75;;
18503;SDS011;9381;54.244;10.074;2022-12-28T07:05:11;7.93;;;5.80;;
18503;SDS011;9381;54.244;10.074;2022-12-28T07:10:12;6.63;;;6.03;;
18503;SDS011;9381;54.244;10.074;2022-12-28T07:15:12;8.00;;;6.23;;
18503;SDS011;9381;54.244;10.074;2022-12-28T07:20:13;7.13;;;6.17;;
18503;SDS011;9381;54.244;10.074;2022-12-28T07:25:13;8.13;;;6.97;;
18503;SDS011;9381;54.244;10.074;2022-12-28T07:30:14;7.30;;;6.33;;
18503;SDS011;9381;54.244;10.074;2022-12-28T07:35:14;7.70;;;6.13;;
18503;SDS011;9381;54.244;10.074;2022-12-28T07:40:14;9.47;;;6.70;;
18503;SDS011;9381;54.244;10.074;2022-12-28T07:45:15;9.83;;;7.07;;
18503;SDS011;9381;54.244;10.074;2022-12-28T07:50:16;8.43;;;6.57;;
18503;SDS011;9381;54.244;10.074;2022-12-28T07:55:16;7.97;;;6.30;;
18503;SDS011;9381;54.244;10.074;2022-12-28T08:00:16;8.63;;;7.30;;
18503;SDS011;9381;54.244;10.074;2022-12-28T08:05:17;8.90;;;7.43;;
18503;SDS011;9381;54.244;10.074;2022-12-28T08:10:18;10.37;;;8.40;;
18503;SDS011;9381;54.244;10.074;2022-12-28T08:15:18;9.37;;;7.37;;
18503;SDS011;9381;54.244;10.074;2022-12-28T08:20:18;10.87;;;8.60;;
18503;SDS011;9381;54.244;10.074;2022-12-28T08:25:19;9.87;;;7.93;;
18503;SDS011;9381;54.244;10.074;2022-12-28T08:30:20;11.47;;;8.70;;
18503;SDS011;9381;54.244;10.074;2022-12-28T08:35:20;11.20;;;8.87;;
18503;SDS011;9381;54.244;10.074;2022-12-28T08:40:21;9.80;;;8.00;;
18503;SDS011;9381;54.244;10.074;2022-12-28T08:45:26;9.90;;;8.10;;
18503;SDS011;9381;54.244;10.074;2022-12-28T08:50:27;9.37;;;7.83;;
18503;SDS011;9381;54.244;10.074;2022-12-28T08:55:27;11.25;;;8.05;;
18503;SDS011;9381;54.244;10.074;2022-12-28T09:00:27;10.57;;;8.67;;
18503;SDS011;9381;54.244;10.074;2022-12-28T09:05:28;10.23;;;8.57;;
18503;SDS011;9381;54.244;10.074;2022-12-28T09:10:28;11.30;;;8.33;;
18503;SDS011;9381;54.244;10.074;2022-12-28T09:15:28;10.02;;;8.57;;
18503;SDS011;9381;54.244;10.074;2022-12-28T09:20:29;11.02;;;8.85;;
18503;SDS011;9381;54.244;10.074;2022-12-28T09:25:29;8.98;;;7.97;;
18503;SDS011;9381;54.244;10.074;2022-12-28T09:30:29;9.93;;;8.90;;
18503;SDS011;9381;54.244;10.074;2022-12-28T09:35:30;10.30;;;8.20;;
18503;SDS011;9381;54.244;10.074;2022-12-28T09:40:32;10.87;;;8.33;;
18503;SDS011;9381;54.244;10.074;2022-12-28T09:45:33;10.27;;;7.63;;
18503;SDS011;9381;54.244;10.074;2022-12-28T09:50:34;9.57;;;7.83;;
18503;SDS011;9381;54.244;10.074;2022-12-28T09:55:35;8.63;;;7.23;;
18503;SDS011;9381;54.244;10.074;2022-12-28T10:00:38;8.53;;;7.07;;
18503;SDS011;9381;54.244;10.074;2022-12-28T10:05:43;8.77;;;6.50;;
18503;SDS011;9381;54.244;10.074;2022-12-28T10:10:44;7.97;;;6.00;;
18503;SDS011;9381;54.244;10.074;2022-12-28T10:15:45;7.37;;;5.73;;
18503;SDS011;9381;54.244;10.074;2022-12-28T10:20:46;6.13;;;5.23;;
18503;SDS011;9381;54.244;10.074;2022-12-28T10:25:46;6.30;;;4.97;;
18503;SDS011;9381;54.244;10.074;2022-12-28T10:31:03;5.70;;;4.90;;
18503;SDS011;9381;54.244;10.074;2022-12-28T10:36:09;4.83;;;4.17;;
18503;SDS011;9381;54.244;10.074;2022-12-28T10:41:12;4.87;;;4.37;;
18503;SDS011;9381;54.244;10.074;2022-12-28T10:46:16;5.60;;;4.73;;
18503;SDS011;9381;54.244;10.074;2022-12-28T10:51:19;6.13;;;4.87;;
18503;SDS011;9381;54.244;10.074;2022-12-28T10:56:26;5.37;;;4.80;;
18503;SDS011;9381;54.244;10.074;2022-12-28T11:01:30;7.30;;;5.70;;
18503;SDS011;9381;54.244;10.074;2022-12-28T11:06:34;5.47;;;4.63;;
18503;SDS011;9381;54.244;10.074;2022-12-28T11:11:50;6.73;;;4.90;;
18503;SDS011;9381;54.244;10.074;2022-12-28T11:16:52;4.37;;;3.60;;
18503;SDS011;9381;54.244;10.074;2022-12-28T11:21:52;4.17;;;3.73;;
18503;SDS011;9381;54.244;10.074;2022-12-28T11:26:53;4.40;;;3.67;;
18503;SDS011;9381;54.244;10.074;2022-12-28T11:36:54;4.88;;;3.40;;
18503;SDS011;9381;54.244;10.074;2022-12-28T11:41:56;4.80;;;3.70;;
18503;SDS011;9381;54.244;10.074;2022-12-28T11:57:31;5.80;;;5.17;;
18503;SDS011;9381;54.244;10.074;2022-12-28T12:02:37;7.40;;;5.77;;
18503;SDS011;9381;54.244;10.074;2022-12-28T12:07:45;7.63;;;5.90;;
18503;SDS011;9381;54.244;10.074;2022-12-28T12:12:48;7.50;;;5.53;;
18503;SDS011;9381;54.244;10.074;2022-12-28T12:18:13;7.43;;;5.10;;
18503;SDS011;9381;54.244;10.074;2022-12-28T12:23:25;6.87;;;4.13;;
18503;SDS011;9381;54.244;10.074;2022-12-28T12:33:33;6.00;;;3.27;;
18503;SDS011;9381;54.244;10.074;2022-12-28T12:44:27;3.00;;;1.70;;
18503;SDS011;9381;54.244;10.074;2022-12-28T12:49:43;3.07;;;1.50;;
18503;SDS011;9381;54.244;10.074;2022-12-28T13:00:21;1.33;;;1.00;;
18503;SDS011;9381;54.244;10.074;2022-12-28T13:05:24;1.70;;;0.90;;
18503;SDS011;9381;54.244;10.074;2022-12-28T13:15:33;3.27;;;1.63;;
18503;SDS011;9381;54.244;10.074;2022-12-28T13:20:33;1.70;;;1.20;;
18503;SDS011;9381;54.244;10.074;2022-12-28T13:25:33;2.37;;;1.10;;
18503;SDS011;9381;54.244;10.074;2022-12-28T13:30:34;2.00;;;1.30;;
18503;SDS011;9381;54.244;10.074;2022-12-28T13:35:34;3.23;;;1.60;;
18503;SDS011;9381;54.244;10.074;2022-12-28T13:40:36;4.53;;;2.90;;
18503;SDS011;9381;54.244;10.074;2022-12-28T13:45:37;4.43;;;3.40;;
18503;SDS011;9381;54.244;10.074;2022-12-28T13:50:38;3.80;;;3.17;;
18503;SDS011;9381;54.244;10.074;2022-12-28T13:55:41;4.17;;;2.87;;
18503;SDS011;9381;54.244;10.074;2022-12-28T14:00:46;5.23;;;2.93;;
18503;SDS011;9381;54.244;10.074;2022-12-28T14:05:49;2.50;;;2.30;;
18503;SDS011;9381;54.244;10.074;2022-12-28T14:10:59;3.30;;;2.80;;
18503;SDS011;9381;54.244;10.074;2022-12-28T14:16:01;4.97;;;4.23;;
18503;SDS011;9381;54.244;10.074;2022-12-28T14:21:03;4.20;;;3.80;;
18503;SDS011;9381;54.244;10.074;2022-12-28T14:26:09;3.57;;;3.27;;
18503;SDS011;9381;54.244;10.074;2022-12-28T14:31:19;3.20;;;2.90;;
18503;SDS011;9381;54.244;10.074;2022-12-28T14:36:25;3.03;;;2.73;;
18503;SDS011;9381;54.244;10.074;2022-12-28T14:41:32;3.80;;;3.40;;
18503;SDS011;9381;54.244;10.074;2022-12-28T14:46:38;4.33;;;3.83;;
18503;SDS011;9381;54.244;10.074;2022-12-28T14:51:40;4.73;;;4.23;;
18503;SDS011;9381;54.244;10.074;2022-12-28T14:56:40;5.67;;;4.60;;
18503;SDS011;9381;54.244;10.074;2022-12-28T15:01:42;6.07;;;5.37;;
18503;SDS011;9381;54.244;10.074;2022-12-28T15:06:44;7.90;;;5.73;;
18503;SDS011;9381;54.244;10.074;2022-12-28T15:11:45;7.13;;;6.30;;
18503;SDS011;9381;54.244;10.074;2022-12-28T15:16:46;8.10;;;6.67;;
18503;SDS011;9381;54.244;10.074;2022-12-28T15:21:46;7.57;;;6.63;;
18503;SDS011;9381;54.244;10.074;2022-12-28T15:26:46;7.68;;;6.88;;
18503;SDS011;9381;54.244;10.074;2022-12-28T15:31:47;8.00;;;6.70;;
18503;SDS011;9381;54.244;10.074;2022-12-28T15:36:47;7.30;;;6.57;;
18503;SDS011;9381;54.244;10.074;2022-12-28T15:41:47;6.97;;;6.28;;
18503;SDS011;9381;54.244;10.074;2022-12-28T15:46:48;7.73;;;6.07;;
18503;SDS011;9381;54.244;10.074;2022-12-28T15:51:49;7.13;;;5.63;;
18503;SDS011;9381;54.244;10.074;2022-12-28T15:56:52;8.10;;;6.20;;
18503;SDS011;9381;54.244;10.074;2022-12-28T16:01:54;8.03;;;6.20;;
18503;SDS011;9381;54.244;10.074;2022-12-28T16:06:54;7.00;;;6.30;;
18503;SDS011;9381;54.244;10.074;2022-12-28T16:11:54;7.25;;;6.07;;
18503;SDS011;9381;54.244;10.074;2022-12-28T16:16:55;6.90;;;5.97;;
18503;SDS011;9381;54.244;10.074;2022-12-28T16:21:55;8.07;;;7.17;;
18503;SDS011;9381;54.244;10.074;2022-12-28T16:26:56;7.93;;;6.67;;
18503;SDS011;9381;54.244;10.074;2022-12-28T16:31:59;9.57;;;7.27;;
18503;SDS011;9381;54.244;10.074;2022-12-28T16:37:00;9.03;;;7.23;;
18503;SDS011;9381;54.244;10.074;2022-12-28T16:42:02;7.60;;;6.73;;
18503;SDS011;9381;54.244;10.074;2022-12-28T16:47:03;6.50;;;5.03;;
18503;SDS011;9381;54.244;10.074;2022-12-28T16:52:04;5.87;;;5.07;;
18503;SDS011;9381;54.244;10.074;2022-12-28T16:57:04;4.82;;;4.30;;
18503;SDS011;9381;54.244;10.074;2022-12-28T17:02:05;4.37;;;3.80;;
18503;SDS011;9381;54.244;10.074;2022-12-28T17:07:07;3.87;;;3.03;;
18503;SDS011;9381;54.244;10.074;2022-12-28T17:12:07;3.23;;;2.93;;
18503;SDS011;9381;54.244;10.074;2022-12-28T17:17:08;4.60;;;2.90;;
18503;SDS011;9381;54.244;10.074;2022-12-28T17:22:08;3.67;;;3.13;;
18503;SDS011;9381;54.244;10.074;2022-12-28T17:27:09;2.90;;;2.43;;
18503;SDS011;9381;54.244;10.074;2022-12-28T17:32:09;3.47;;;2.60;;
18503;SDS011;9381;54.244;10.074;2022-12-28T17:37:10;1.90;;;1.80;;
18503;SDS011;9381;54.244;10.074;2022-12-28T17:42:10;3.03;;;2.47;;
18503;SDS011;9381;54.244;10.074;2022-12-28T17:47:10;2.03;;;1.73;;
18503;SDS011;9381;54.244;10.074;2022-12-28T17:52:11;3.90;;;2.58;;
18503;SDS011;9381;54.244;10.074;2022-12-28T17:57:16;2.80;;;2.20;;
18503;SDS011;9381;54.244;10.074;2022-12-28T18:02:16;2.50;;;2.10;;
18503;SDS011;9381;54.244;10.074;2022-12-28T18:07:17;3.20;;;2.70;;
18503;SDS011;9381;54.244;10.074;2022-12-28T18:12:17;4.10;;;3.20;;
18503;SDS011;9381;54.244;10.074;2022-12-28T18:17:17;6.07;;;3.60;;
18503;SDS011;9381;54.244;10.074;2022-12-28T18:22:22;4.50;;;4.10;;
18503;SDS011;9381;54.244;10.074;2022-12-28T18:27:22;5.03;;;4.37;;
18503;SDS011;9381;54.244;10.074;2022-12-28T18:32:22;6.40;;;5.38;;
18503;SDS011;9381;54.244;10.074;2022-12-28T18:37:23;6.25;;;5.13;;
18503;SDS011;9381;54.244;10.074;2022-12-28T18:42:23;8.65;;;6.28;;
18503;SDS011;9381;54.244;10.074;2022-12-28T18:47:24;7.73;;;6.93;;
18503;SDS011;9381;54.244;10.074;2022-12-28T18:52:24;10.23;;;7.37;;
18503;SDS011;9381;54.244;10.074;2022-12-28T18:57:25;10.27;;;8.83;;
18503;SDS011;9381;54.244;10.074;2022-12-28T19:02:26;13.37;;;9.97;;
18503;SDS011;9381;54.244;10.074;2022-12-28T19:07:27;14.23;;;10.80;;
18503;SDS011;9381;54.244;10.074;2022-12-28T19:12:27;12.35;;;11.05;;
18503;SDS011;9381;54.244;10.074;2022-12-28T19:17:27;14.80;;;12.60;;
18503;SDS011;9381;54.244;10.074;2022-12-28T19:22:27;16.88;;;12.73;;
18503;SDS011;9381;54.244;10.074;2022-12-28T19:27:28;15.00;;;11.80;;
18503;SDS011;9381;54.244;10.074;2022-12-28T19:32:29;19.10;;;12.37;;
18503;SDS011;9381;54.244;10.074;2022-12-28T19:37:29;17.97;;;11.53;;
18503;SDS011;9381;54.244;10.074;2022-12-28T19:42:30;18.63;;;12.17;;
18503;SDS011;9381;54.244;10.074;2022-12-28T19:47:30;13.50;;;11.03;;
18503;SDS011;9381;54.244;10.074;2022-12-28T19:52:31;14.53;;;10.33;;
18503;SDS011;9381;54.244;10.074;2022-12-28T19:57:32;13.03;;;9.73;;
18503;SDS011;9381;54.244;10.074;2022-12-28T20:02:32;14.13;;;9.47;;
18503;SDS011;9381;54.244;10.074;2022-12-28T20:07:35;15.53;;;9.57;;
18503;SDS011;9381;54.244;10.074;2022-12-28T20:12:37;9.20;;;7.83;;
18503;SDS011;9381;54.244;10.074;2022-12-28T20:17:37;8.90;;;7.87;;
18503;SDS011;9381;54.244;10.074;2022-12-28T20:22:39;13.07;;;9.23;;
18503;SDS011;9381;54.244;10.074;2022-12-28T20:27:39;10.37;;;8.03;;
18503;SDS011;9381;54.244;10.074;2022-12-28T20:32:40;9.93;;;7.35;;
18503;SDS011;9381;54.244;10.074;2022-12-28T20:37:40;9.23;;;7.20;;
18503;SDS011;9381;54.244;10.074;2022-12-28T20:42:41;8.73;;;6.57;;
18503;SDS011;9381;54.244;10.074;2022-12-28T20:48:00;10.47;;;6.53;;
18503;SDS011;9381;54.244;10.074;2022-12-28T20:53:00;8.40;;;6.60;;
18503;SDS011;9381;54.244;10.074;2022-12-28T20:58:01;9.37;;;6.00;;
18503;SDS011;9381;54.244;10.074;2022-12-28T21:03:02;10.50;;;5.47;;
18503;SDS011;9381;54.244;10.074;2022-12-28T21:08:02;8.77;;;5.60;;
18503;SDS011;9381;54.244;10.074;2022-12-28T21:13:03;7.10;;;4.67;;
18503;SDS011;9381;54.244;10.074;2022-12-28T21:18:03;8.80;;;5.00;;
18503;SDS011;9381;54.244;10.074;2022-12-28T21:23:03;7.82;;;5.45;;
18503;SDS011;9381;54.244;10.074;2022-12-28T21:28:04;8.88;;;5.25;;
18503;SDS011;9381;54.244;10.074;2022-12-28T21:33:04;8.63;;;4.93;;
18503;SDS011;9381;54.244;10.074;2022-12-28T21:38:05;6.93;;;5.23;;
18503;SDS011;9381;54.244;10.074;2022-12-28T21:43:05;8.60;;;5.17;;
18503;SDS011;9381;54.244;10.074;2022-12-28T21:48:06;5.83;;;4.90;;
18503;SDS011;9381;54.244;10.074;2022-12-28T21:53:06;7.07;;;5.17;;
18503;SDS011;9381;54.244;10.074;2022-12-28T21:58:07;8.63;;;4.97;;
18503;SDS011;9381;54.244;10.074;2022-12-28T22:03:08;7.90;;;4.80;;
18503;SDS011;9381;54.244;10.074;2022-12-28T22:08:27;5.00;;;4.07;;
18503;SDS011;9381;54.244;10.074;2022-12-28T22:13:46;7.87;;;4.60;;
18503;SDS011;9381;54.244;10.074;2022-12-28T22:18:46;6.87;;;5.53;;
18503;SDS011;9381;54.244;10.074;2022-12-28T22:23:46;7.27;;;4.33;;
18503;SDS011;9381;54.244;10.074;2022-12-28T22:28:46;5.80;;;4.55;;
18503;SDS011;9381;54.244;10.074;2022-12-28T22:33:47;8.23;;;5.20;;
18503;SDS011;9381;54.244;10.074;2022-12-28T22:38:47;5.55;;;4.13;;
18503;SDS011;9381;54.244;10.074;2022-12-28T22:43:48;6.00;;;4.67;;
18503;SDS011;9381;54.244;10.074;2022-12-28T22:48:50;9.77;;;5.17;;
18503;SDS011;9381;54.244;10.074;2022-12-28T22:53:50;5.05;;;4.55;;
18503;SDS011;9381;54.244;10.074;2022-12-28T22:58:50;5.03;;;4.57;;
18503;SDS011;9381;54.244;10.074;2022-12-28T23:03:50;7.33;;;4.30;;
18503;SDS011;9381;54.244;10.074;2022-12-28T23:08:51;4.80;;;4.38;;
18503;SDS011;9381;54.244;10.074;2022-12-28T23:13:51;5.38;;;4.32;;
18503;SDS011;9381;54.244;10.074;2022-12-28T23:18:52;5.50;;;4.23;;
18503;SDS011;9381;54.244;10.074;2022-12-28T23:24:11;4.33;;;3.93;;
18503;SDS011;9381;54.244;10.074;2022-12-28T23:29:31;4.83;;;4.43;;
18503;SDS011;9381;54.244;10.074;2022-12-28T23:34:31;5.13;;;4.47;;
18503;SDS011;9381;54.244;10.074;2022-12-28T23:39:32;5.95;;;5.13;;
18503;SDS011;9381;54.244;10.074;2022-12-28T23:44:32;7.43;;;5.73;;
18503;SDS011;9381;54.244;10.074;2022-12-28T23:49:32;6.63;;;5.73;;
18503;SDS011;9381;54.244;10.074;2022-12-28T23:54:33;7.65;;;6.20;;
18503;SDS011;9381;54.244;10.074;2022-12-28T23:59:33;8.07;;;6.85;;
